createdAt,value
2023-04-03T00:01:22.141Z,99.90
2023-04-03T00:03:53.110Z,99.90
2023-04-03T00:06:23.079Z,99.90
2023-04-03T00:08:51.425Z,99.90
2023-04-03T00:11:19.882Z,99.90
2023-04-03T00:13:48.119Z,99.90
2023-04-03T00:16:16.321Z,99.90
2023-04-03T00:18:44.809Z,1.00
2023-04-03T00:21:15.187Z,99.90
2023-04-03T00:23:44.716Z,99.90
2023-04-03T00:26:12.821Z,99.90
2023-04-03T00:28:41.108Z,1.00
2023-04-03T00:31:09.420Z,1.00
2023-04-03T00:33:40.048Z,1.00
2023-04-03T00:36:09.878Z,1.00
2023-04-03T00:38:38.689Z,1.00
2023-04-03T00:41:10.509Z,1.00
2023-04-03T00:43:38.545Z,1.00
2023-04-03T00:46:06.738Z,1.00
2023-04-03T00:48:39.348Z,1.00
2023-04-03T00:51:09.579Z,1.00
2023-04-03T00:53:41.938Z,1.00
2023-04-03T00:56:14.880Z,1.00
2023-04-03T00:58:46.759Z,1.00
2023-04-03T01:01:18.110Z,1.00
2023-04-03T01:03:46.427Z,1.00
2023-04-03T01:06:18.038Z,1.00
2023-04-03T01:08:47.844Z,1.00
2023-04-03T01:11:17.119Z,1.00
2023-04-03T01:13:45.414Z,1.00
2023-04-03T01:16:13.625Z,99.90
2023-04-03T01:18:43.288Z,1.00
2023-04-03T01:21:50.198Z,1.00
2023-04-03T01:24:33.784Z,1.00
2023-04-03T01:27:05.129Z,1.00
2023-04-03T01:29:33.327Z,1.00
2023-04-03T01:32:04.028Z,1.00
2023-04-03T01:34:32.608Z,1.00
2023-04-03T01:37:01.107Z,1.00
2023-04-03T01:39:29.059Z,1.00
2023-04-03T01:41:57.108Z,1.00
2023-04-03T01:44:25.258Z,1.00
2023-04-03T01:46:53.297Z,42.40
2023-04-03T01:49:22.784Z,1.00
2023-04-03T01:51:50.816Z,1.00
2023-04-03T01:54:18.848Z,1.00
2023-04-03T01:56:46.824Z,1.00
2023-04-03T01:59:15.483Z,2.90
2023-04-03T02:01:44.503Z,55.20
2023-04-03T02:04:13.081Z,99.90
2023-04-03T02:06:42.640Z,99.90
2023-04-03T02:09:13.495Z,99.90
2023-04-03T02:11:41.683Z,99.90
2023-04-03T02:14:10.080Z,99.90
2023-04-03T02:16:38.504Z,99.90
2023-04-03T02:19:06.549Z,1.00
2023-04-03T02:21:34.521Z,1.00
2023-04-03T02:24:07.071Z,1.00
2023-04-03T02:26:35.284Z,1.00
2023-04-03T02:29:04.610Z,99.90
2023-04-03T02:31:32.870Z,99.90
2023-04-03T02:34:01.033Z,99.90
2023-04-03T02:36:30.112Z,99.90
2023-04-03T02:39:00.021Z,99.90
2023-04-03T02:41:35.680Z,99.90
2023-04-03T02:44:03.815Z,1.00
2023-04-03T02:46:32.268Z,1.00
2023-04-03T02:49:00.711Z,1.00
2023-04-03T02:51:28.691Z,1.00
2023-04-03T02:53:56.847Z,1.00
2023-04-03T02:56:25.084Z,49.10
2023-04-03T02:58:54.382Z,79.90
2023-04-03T03:01:22.755Z,99.90
2023-04-03T03:03:51.147Z,1.00
2023-04-03T03:06:19.732Z,1.00
2023-04-03T03:08:48.049Z,99.90
2023-04-03T03:11:17.092Z,99.90
2023-04-03T03:13:45.986Z,99.90
2023-04-03T03:16:15.999Z,99.90
2023-04-03T03:18:44.043Z,99.90
2023-04-03T03:21:12.969Z,99.90
2023-04-03T03:23:41.341Z,1.00
2023-04-03T03:26:11.076Z,1.00
2023-04-03T03:28:41.654Z,1.00
2023-04-03T03:31:11.216Z,23.10
2023-04-03T03:33:41.296Z,1.00
2023-04-03T03:36:09.925Z,1.00
2023-04-03T03:38:39.657Z,1.00
2023-04-03T03:41:07.786Z,1.00
2023-04-03T03:43:36.294Z,99.90
2023-04-03T03:46:04.423Z,1.00
2023-04-03T03:48:32.360Z,99.90
2023-04-03T03:51:01.742Z,1.00
2023-04-03T03:53:29.698Z,1.00
2023-04-03T03:55:57.906Z,1.00
2023-04-03T03:58:25.997Z,1.00
2023-04-03T04:00:55.842Z,1.00
2023-04-03T04:03:26.251Z,99.90
2023-04-03T04:05:54.371Z,99.90
2023-04-03T04:08:26.574Z,99.90
2023-04-03T04:10:55.006Z,1.00
2023-04-03T04:13:22.926Z,1.00
2023-04-03T04:15:50.972Z,99.90
2023-04-03T04:18:21.128Z,99.90
2023-04-03T04:20:50.129Z,99.90
2023-04-03T04:23:19.477Z,99.90
2023-04-03T04:25:49.558Z,1.00
2023-04-03T04:28:18.699Z,99.90
2023-04-03T04:30:47.416Z,95.80
2023-04-03T04:33:15.964Z,99.90
2023-04-03T04:35:44.882Z,99.90
2023-04-03T04:38:14.550Z,99.90
2023-04-03T04:40:42.785Z,1.00
2023-04-03T04:43:15.316Z,1.00
2023-04-03T04:45:43.578Z,1.00
2023-04-03T04:48:11.588Z,1.00
2023-04-03T04:50:39.858Z,99.90
2023-04-03T04:55:38.790Z,1.00
2023-04-03T04:58:08.466Z,1.00
2023-04-03T05:00:38.370Z,99.90
2023-04-03T05:03:07.054Z,99.90
2023-04-03T05:05:36.747Z,1.00
2023-04-03T05:08:06.127Z,99.90
2023-04-03T05:10:35.862Z,22.10
2023-04-03T05:15:32.921Z,1.00
2023-04-03T05:18:03.612Z,99.90
2023-04-03T05:20:32.211Z,99.90
2023-04-03T05:25:31.571Z,99.90
2023-04-03T05:28:00.199Z,1.00
2023-04-03T05:30:28.537Z,1.00
2023-04-03T05:35:27.580Z,1.00
2023-04-03T05:37:55.666Z,99.90
2023-04-03T05:40:24.130Z,99.90
2023-04-03T05:42:52.783Z,99.90
2023-04-03T05:45:21.787Z,99.90
2023-04-03T05:47:50.349Z,99.90
2023-04-03T05:50:20.389Z,1.00
2023-04-03T05:52:53.006Z,1.00
2023-04-03T05:55:21.668Z,60.90
2023-04-03T05:57:52.471Z,1.00
2023-04-03T06:00:23.761Z,1.00
2023-04-03T06:02:51.969Z,1.00
2023-04-03T06:05:20.090Z,99.90
2023-04-03T06:07:50.588Z,99.90
2023-04-03T06:10:21.109Z,2.20
2023-04-03T06:12:49.694Z,1.00
2023-04-03T06:15:18.403Z,99.90
2023-04-03T06:17:46.751Z,99.90
2023-04-03T06:20:16.905Z,1.00
2023-04-03T06:22:45.624Z,99.90
2023-04-03T06:25:19.452Z,1.00
2023-04-03T06:27:50.054Z,1.00
2023-04-03T06:30:18.558Z,27.00
2023-04-03T06:32:47.422Z,98.60
2023-04-03T06:35:16.129Z,99.90
2023-04-03T06:37:44.131Z,99.90
2023-04-03T06:40:21.937Z,99.90
2023-04-03T06:42:50.349Z,99.90
2023-04-03T06:45:21.459Z,1.00
2023-04-03T06:47:49.891Z,1.00
2023-04-03T06:50:17.822Z,99.90
2023-04-03T06:52:46.689Z,14.00
2023-04-03T06:55:16.981Z,1.00
2023-04-03T06:57:45.527Z,1.00
2023-04-03T07:00:15.625Z,1.00
2023-04-03T07:02:44.267Z,1.00
2023-04-03T07:05:12.708Z,1.00
2023-04-03T07:07:42.755Z,1.00
2023-04-03T07:10:16.134Z,99.90
2023-04-03T07:12:45.652Z,1.00
2023-04-03T07:15:15.218Z,1.00
2023-04-03T07:17:43.596Z,1.00
2023-04-03T07:20:12.063Z,1.00
2023-04-03T07:22:40.657Z,1.00
2023-04-03T07:25:10.400Z,1.00
2023-04-03T07:27:38.829Z,1.00
2023-04-03T07:30:10.931Z,99.90
2023-04-03T07:32:39.394Z,99.90
2023-04-03T07:35:09.257Z,5.70
2023-04-03T07:37:37.561Z,57.20
2023-04-03T07:40:09.700Z,1.00
2023-04-03T07:42:39.202Z,1.00
2023-04-03T07:45:09.602Z,1.00
2023-04-03T07:47:38.005Z,1.00
2023-04-03T07:50:07.098Z,99.90
2023-04-03T07:52:35.712Z,99.90
2023-04-03T07:55:03.810Z,99.90
2023-04-03T07:57:33.261Z,99.90
2023-04-03T08:00:01.679Z,99.90
2023-04-03T08:02:35.213Z,1.00
2023-04-03T08:05:03.337Z,1.00
2023-04-03T08:07:31.633Z,1.00
2023-04-03T08:10:00.005Z,1.00
2023-04-03T08:12:29.597Z,1.00
2023-04-03T08:14:59.411Z,1.00
2023-04-03T08:17:27.770Z,1.00
2023-04-03T08:19:57.359Z,1.00
2023-04-03T08:22:25.672Z,99.90
2023-04-03T08:24:59.489Z,99.90
2023-04-03T08:27:28.631Z,99.90
2023-04-03T08:29:58.915Z,99.90
2023-04-03T08:32:27.402Z,99.90
2023-04-03T08:34:57.491Z,91.30
2023-04-03T08:37:26.414Z,89.60
2023-04-03T08:39:55.137Z,35.70
2023-04-03T08:42:44.210Z,21.90
2023-04-03T08:45:17.079Z,27.20
2023-04-03T08:47:49.159Z,10.70
2023-04-03T08:50:22.274Z,1.00
2023-04-03T08:52:52.026Z,1.00
2023-04-03T08:55:30.164Z,1.00
2023-04-03T08:58:04.144Z,1.00
2023-04-03T09:00:41.410Z,99.90
2023-04-03T09:03:15.130Z,1.00
2023-04-03T09:05:52.165Z,1.00
2023-04-03T09:08:29.317Z,1.00
2023-04-03T09:11:12.174Z,1.00
2023-04-03T09:13:49.923Z,1.00
2023-04-03T09:16:28.077Z,1.00
2023-04-03T09:19:04.170Z,1.00
2023-04-03T09:21:39.531Z,1.00
2023-04-03T09:24:12.989Z,1.00
2023-04-03T09:26:45.862Z,1.00
2023-04-03T09:29:22.203Z,1.00
2023-04-03T09:31:55.710Z,1.00
2023-04-03T09:34:27.502Z,1.00
2023-04-03T09:36:58.677Z,1.00
2023-04-03T09:39:29.517Z,1.00
2023-04-03T09:42:00.694Z,1.00
2023-04-03T09:44:31.464Z,1.00
2023-04-03T09:47:01.546Z,1.00
2023-04-03T09:49:30.172Z,1.00
2023-04-03T09:52:03.096Z,1.00
2023-04-03T09:54:38.836Z,1.00
2023-04-03T09:57:12.740Z,1.00
2023-04-03T09:59:49.279Z,1.00
2023-04-03T10:02:38.414Z,1.00
2023-04-03T10:05:27.504Z,1.00
2023-04-03T10:08:10.741Z,1.00
2023-04-03T10:10:40.287Z,1.00
2023-04-03T10:13:19.176Z,1.00
2023-04-03T10:15:55.476Z,1.00
2023-04-03T10:18:33.667Z,1.00
2023-04-03T10:21:09.707Z,1.00
2023-04-03T10:23:51.048Z,1.00
2023-04-03T10:26:31.852Z,1.00
2023-04-03T10:29:09.356Z,1.00
2023-04-03T10:31:45.248Z,1.00
2023-04-03T10:34:23.319Z,1.00
2023-04-03T10:36:58.637Z,1.00
2023-04-03T10:39:34.358Z,1.00
2023-04-03T10:42:17.391Z,1.00
2023-04-03T10:45:01.310Z,1.00
2023-04-03T10:47:36.051Z,1.00
2023-04-03T10:50:24.463Z,1.00
2023-04-03T10:53:04.900Z,1.00
2023-04-03T10:55:40.636Z,1.00
2023-04-03T10:58:17.280Z,1.00
2023-04-03T11:00:50.252Z,1.00
2023-04-03T11:03:30.399Z,1.00
2023-04-03T11:06:01.641Z,1.00
2023-04-03T11:08:33.274Z,1.00
2023-04-03T11:11:08.492Z,1.00
2023-04-03T11:13:43.828Z,1.00
2023-04-03T11:16:20.853Z,1.00
2023-04-03T11:18:54.894Z,1.00
2023-04-03T11:21:26.679Z,1.00
2023-04-03T11:23:59.335Z,1.00
2023-04-03T11:26:33.505Z,1.00
2023-04-03T11:29:09.273Z,1.00
2023-04-03T11:32:09.979Z,1.00
2023-04-03T11:34:44.460Z,1.00
2023-04-03T11:37:20.045Z,1.00
2023-04-03T11:39:56.461Z,1.00
2023-04-03T11:42:41.018Z,1.00
2023-04-03T11:45:28.592Z,1.00
2023-04-03T11:47:59.694Z,1.00
2023-04-03T11:50:45.110Z,1.00
2023-04-03T11:53:33.721Z,1.00
2023-04-03T11:56:06.808Z,1.00
2023-04-03T11:58:37.272Z,1.00
2023-04-03T12:01:47.020Z,1.00
2023-04-03T12:04:17.075Z,1.00
2023-04-03T12:07:10.646Z,1.00
2023-04-03T12:10:31.720Z,1.00
2023-04-03T12:13:05.365Z,1.00
2023-04-03T12:16:00.898Z,1.00
2023-04-03T12:18:59.593Z,1.00
2023-04-03T12:22:08.548Z,1.00
2023-04-03T12:24:40.371Z,1.00
2023-04-03T12:27:22.110Z,1.00
2023-04-03T12:29:55.111Z,1.00
2023-04-03T12:32:38.483Z,1.00
2023-04-03T12:35:14.741Z,1.00
2023-04-03T12:38:03.080Z,1.00
2023-04-03T12:40:36.688Z,1.00
2023-04-03T12:43:20.287Z,1.00
2023-04-03T12:45:51.740Z,1.00
2023-04-03T12:48:26.518Z,1.00
2023-04-03T12:50:55.321Z,1.00
2023-04-03T12:53:27.688Z,1.00
2023-04-03T12:56:26.482Z,1.00
2023-04-03T12:58:56.517Z,1.00
2023-04-03T13:01:28.632Z,1.00
2023-04-03T13:04:00.782Z,1.00
2023-04-03T13:06:34.496Z,1.00
2023-04-03T13:09:13.436Z,1.00
2023-04-03T13:11:45.624Z,1.00
2023-04-03T13:14:18.946Z,1.00
2023-04-03T13:16:56.675Z,1.00
2023-04-03T13:19:29.227Z,1.00
2023-04-03T13:22:02.547Z,1.00
2023-04-03T13:24:31.862Z,1.00
2023-04-03T13:27:01.724Z,1.00
2023-04-03T13:29:33.353Z,1.00
2023-04-03T13:32:03.254Z,1.00
2023-04-03T13:34:40.062Z,1.00
2023-04-03T13:37:09.261Z,1.00
2023-04-03T13:39:39.575Z,1.00
2023-04-03T13:42:23.834Z,1.00
2023-04-03T13:45:09.135Z,1.00
2023-04-03T13:47:42.543Z,1.00
2023-04-03T13:50:18.964Z,1.00
2023-04-03T13:52:51.351Z,1.00
2023-04-03T13:55:27.247Z,1.00
2023-04-03T13:57:59.800Z,1.00
2023-04-03T14:00:36.404Z,1.00
2023-04-03T14:03:16.233Z,1.00
2023-04-03T14:05:48.947Z,1.00
2023-04-03T14:08:24.115Z,1.00
2023-04-03T14:10:59.994Z,1.00
2023-04-03T14:13:32.123Z,1.00
2023-04-03T14:16:15.024Z,1.00
2023-04-03T14:18:43.977Z,1.00
2023-04-03T14:21:14.170Z,1.00
2023-04-03T14:23:42.842Z,1.00
2023-04-03T14:26:14.799Z,1.00
2023-04-03T14:28:45.359Z,1.00
2023-04-03T14:31:16.994Z,1.00
2023-04-03T14:33:45.907Z,1.00
2023-04-03T14:36:16.359Z,1.00
2023-04-03T14:38:48.084Z,1.00
2023-04-03T14:41:18.157Z,1.00
2023-04-03T14:43:49.590Z,1.00
2023-04-03T14:46:20.190Z,1.00
2023-04-03T14:48:50.382Z,1.00
2023-04-03T14:51:18.635Z,1.00
2023-04-03T14:53:46.877Z,1.00
2023-04-03T14:56:17.881Z,1.00
2023-04-03T14:58:50.470Z,1.00
2023-04-03T15:01:19.527Z,1.00
2023-04-03T15:03:47.711Z,1.00
2023-04-03T15:06:17.580Z,1.00
2023-04-03T15:08:48.076Z,1.00
2023-04-03T15:11:17.485Z,1.00
2023-04-03T15:13:47.811Z,1.00
2023-04-03T15:16:19.179Z,1.00
2023-04-03T15:18:48.556Z,1.00
2023-04-03T15:21:17.911Z,1.00
2023-04-03T15:23:47.891Z,1.00
2023-04-03T15:26:18.254Z,1.00
2023-04-03T15:28:48.275Z,1.00
2023-04-03T15:31:16.778Z,1.00
2023-04-03T15:33:45.146Z,1.00
2023-04-03T15:36:22.987Z,1.00
2023-04-03T15:39:01.333Z,1.00
2023-04-03T15:41:29.671Z,1.00
2023-04-03T15:44:01.325Z,1.00
2023-04-03T15:46:29.604Z,1.00
2023-04-03T15:48:58.308Z,1.00
2023-04-03T15:51:26.476Z,1.00
2023-04-03T15:53:54.641Z,1.00
2023-04-03T15:56:22.712Z,1.00
2023-04-03T15:58:50.612Z,1.00
2023-04-03T16:01:21.561Z,1.00
2023-04-03T16:03:49.701Z,1.00
2023-04-03T16:06:19.524Z,1.00
2023-04-03T16:08:50.685Z,1.00
2023-04-03T16:11:19.124Z,1.00
2023-04-03T16:13:47.537Z,1.00
2023-04-03T16:16:15.430Z,1.00
2023-04-03T16:18:48.363Z,1.00
2023-04-03T16:21:18.051Z,1.00
2023-04-03T16:23:46.412Z,1.00
2023-04-03T16:26:14.492Z,1.00
2023-04-03T16:28:42.894Z,1.00
2023-04-03T16:31:11.422Z,1.00
2023-04-03T16:33:39.828Z,1.00
2023-04-03T16:36:10.165Z,1.00
2023-04-03T16:38:39.537Z,1.00
2023-04-03T16:41:09.182Z,1.00
2023-04-03T16:43:37.873Z,1.00
2023-04-03T16:46:06.407Z,1.00
2023-04-03T16:48:35.009Z,1.00
2023-04-03T16:51:03.166Z,1.00
2023-04-03T16:53:34.276Z,1.00
2023-04-03T16:56:02.753Z,1.00
2023-04-03T16:58:31.197Z,1.00
2023-04-03T17:00:59.568Z,1.00
2023-04-03T17:03:29.096Z,1.00
2023-04-03T17:05:58.989Z,1.00
2023-04-03T17:08:27.440Z,1.00
2023-04-03T17:10:56.755Z,1.00
2023-04-03T17:13:32.039Z,1.00
2023-04-03T17:16:01.337Z,1.00
2023-04-03T17:18:29.738Z,1.00
2023-04-03T17:20:58.410Z,1.00
2023-04-03T17:23:28.131Z,1.00
2023-04-03T17:25:57.689Z,1.00
2023-04-03T17:28:28.676Z,1.00
2023-04-03T17:30:56.669Z,1.00
2023-04-03T17:33:25.205Z,1.00
2023-04-03T17:35:53.819Z,1.00
2023-04-03T17:38:22.604Z,1.00
2023-04-03T17:40:51.106Z,1.00
2023-04-03T17:43:20.591Z,1.00
2023-04-03T17:45:48.641Z,1.00
2023-04-03T17:48:17.223Z,1.00
2023-04-03T17:50:46.345Z,1.00
2023-04-03T17:53:15.101Z,1.00
2023-04-03T17:55:43.138Z,1.00
2023-04-03T17:58:11.333Z,1.00
2023-04-03T18:00:40.864Z,1.00
2023-04-03T18:03:08.991Z,1.00
2023-04-03T18:05:38.733Z,1.00
2023-04-03T18:08:08.096Z,1.00
2023-04-03T18:10:38.660Z,1.00
2023-04-03T18:13:08.388Z,1.00
2023-04-03T18:15:38.468Z,1.00
2023-04-03T18:18:11.926Z,1.00
2023-04-03T18:20:41.139Z,1.00
2023-04-03T18:23:09.461Z,1.00
2023-04-03T18:25:38.828Z,1.00
2023-04-03T18:28:07.566Z,1.00
2023-04-03T18:30:36.343Z,1.00
2023-04-03T18:33:04.445Z,1.00
2023-04-03T18:35:34.418Z,1.00
2023-04-03T18:38:03.494Z,1.00
2023-04-03T18:40:32.926Z,1.00
2023-04-03T18:43:02.460Z,1.00
2023-04-03T18:45:31.024Z,1.00
2023-04-03T18:48:02.393Z,1.00
2023-04-03T18:50:30.897Z,1.00
2023-04-03T18:53:00.846Z,1.00
2023-04-03T18:55:31.063Z,1.00
2023-04-03T18:57:59.522Z,1.00
2023-04-03T19:00:28.702Z,1.00
2023-04-03T19:02:57.836Z,1.00
2023-04-03T19:05:27.977Z,1.00
2023-04-03T19:07:57.151Z,1.00
2023-04-03T19:10:27.506Z,1.00
2023-04-03T19:12:56.243Z,1.00
2023-04-03T19:15:26.231Z,1.00
2023-04-03T19:17:54.478Z,1.00
2023-04-03T19:20:22.735Z,1.00
2023-04-03T19:22:51.431Z,1.00
2023-04-03T19:25:20.634Z,1.00
2023-04-03T19:27:51.398Z,1.00
2023-04-03T19:30:19.998Z,1.00
2023-04-03T19:32:48.491Z,1.00
2023-04-03T19:35:16.664Z,1.00
2023-04-03T19:37:46.979Z,1.00
2023-04-03T19:40:17.877Z,1.00
2023-04-03T19:42:46.115Z,1.00
2023-04-03T19:45:18.175Z,1.00
2023-04-03T19:47:47.301Z,1.00
2023-04-03T19:50:15.860Z,1.00
2023-04-03T19:52:43.867Z,1.00
2023-04-03T19:55:12.452Z,1.00
2023-04-03T19:57:41.990Z,1.00
2023-04-03T20:00:11.263Z,1.00
2023-04-03T20:02:40.960Z,1.00
2023-04-03T20:05:11.423Z,1.00
2023-04-03T20:07:39.648Z,1.00
2023-04-03T20:10:08.316Z,1.00
2023-04-03T20:12:38.115Z,1.00
2023-04-03T20:15:09.201Z,1.00
2023-04-03T20:17:37.902Z,1.00
2023-04-03T20:20:09.492Z,1.00
2023-04-03T20:22:40.756Z,1.00
2023-04-03T20:25:15.316Z,1.00
2023-04-03T20:27:45.642Z,1.00
2023-04-03T20:30:14.470Z,1.00
2023-04-03T20:32:42.898Z,1.00
2023-04-03T20:35:12.722Z,1.00
2023-04-03T20:37:43.955Z,1.00
2023-04-03T20:40:17.821Z,1.00
2023-04-03T20:42:46.001Z,1.00
2023-04-03T20:45:14.664Z,1.00
2023-04-03T20:47:42.659Z,1.00
2023-04-03T20:50:18.189Z,1.00
2023-04-03T20:52:47.416Z,1.00
2023-04-03T20:55:15.808Z,1.00
2023-04-03T20:57:45.336Z,1.00
2023-04-03T21:00:23.976Z,1.00
2023-04-03T21:02:52.136Z,1.00
2023-04-03T21:05:26.449Z,1.00
2023-04-03T21:08:34.096Z,1.00
2023-04-03T21:11:39.600Z,1.00
2023-04-03T21:14:48.504Z,1.00
2023-04-03T21:17:16.635Z,1.00
2023-04-03T21:19:46.907Z,1.00
2023-04-03T21:22:16.123Z,99.90
2023-04-03T21:24:45.589Z,1.00
2023-04-03T21:27:13.942Z,6.90
2023-04-03T21:29:42.270Z,9.50
2023-04-03T21:32:10.611Z,9.20
2023-04-03T21:34:39.113Z,20.20
2023-04-03T21:37:10.677Z,20.10
2023-04-03T21:39:38.887Z,45.30
2023-04-03T21:42:07.511Z,17.30
2023-04-03T21:44:37.043Z,20.80
2023-04-03T21:47:05.071Z,22.90
2023-04-03T21:49:34.118Z,46.70
2023-04-03T21:52:02.395Z,28.50
2023-04-03T21:54:32.104Z,29.80
2023-04-03T21:57:03.152Z,25.90
2023-04-03T21:59:31.809Z,37.30
2023-04-03T22:02:00.264Z,34.50
2023-04-03T22:04:30.127Z,43.20
2023-04-03T22:06:58.750Z,55.30
2023-04-03T22:09:29.743Z,72.80
2023-04-03T22:12:01.564Z,79.40
2023-04-03T22:14:31.168Z,68.20
2023-04-03T22:16:59.588Z,86.70
2023-04-03T22:19:27.871Z,89.90
2023-04-03T22:21:58.303Z,90.60
2023-04-03T22:24:26.977Z,98.80
2023-04-03T22:26:56.532Z,96.70
2023-04-03T22:29:26.482Z,99.90
2023-04-03T22:31:54.905Z,99.90
2023-04-03T22:34:24.581Z,99.90
2023-04-03T22:36:53.548Z,99.90
2023-04-03T22:39:22.233Z,99.90
2023-04-03T22:41:52.642Z,99.90
2023-04-03T22:44:21.097Z,99.90
2023-04-03T22:46:50.454Z,99.90
2023-04-03T22:49:22.746Z,99.90
2023-04-03T22:51:51.252Z,99.90
2023-04-03T22:54:19.479Z,99.90
2023-04-03T22:56:48.531Z,99.90
2023-04-03T22:59:17.304Z,99.90
2023-04-03T23:01:45.739Z,99.90
2023-04-03T23:04:15.266Z,99.90
2023-04-03T23:06:43.556Z,99.90
2023-04-03T23:09:11.853Z,99.90
2023-04-03T23:11:40.107Z,99.90
2023-04-03T23:14:08.129Z,99.90
2023-04-03T23:16:37.024Z,99.90
2023-04-03T23:19:05.274Z,99.90
2023-04-03T23:21:34.549Z,99.90
2023-04-03T23:24:02.773Z,99.90
2023-04-03T23:26:31.071Z,99.90
2023-04-03T23:28:59.881Z,99.90
2023-04-03T23:31:28.290Z,99.90
2023-04-03T23:33:56.870Z,99.90
2023-04-03T23:36:27.022Z,99.90
2023-04-03T23:39:01.003Z,99.90
2023-04-03T23:41:29.143Z,99.90
2023-04-03T23:43:59.999Z,99.90
2023-04-03T23:46:28.396Z,1.00
2023-04-03T23:48:56.410Z,1.00
2023-04-03T23:51:24.623Z,99.90
2023-04-03T23:53:53.347Z,99.90
2023-04-03T23:56:23.016Z,1.00
2023-04-03T23:58:51.664Z,1.00
